Strona główna
METAR-TAF:

METAR-TAF

Lotnisko :

Port lotniczy Cần Thơ

Cần Thơ, Wietnam

Szerokość geograficzna: 10-05-07N, Długość geograficzna: 105-42-43E, wysokość: 3 m

METAR: brakujący

czas: 16:31 (09:31 UTC)

Prognoza

Raport powstał 4 godziny i 31 minut temu, godzina 05:00 UTC
Prognoza ważna od 04 godzina 06 UTC do 05 godzina 06 UTC
Wiatr 8 kt od zachodnio-południowy zachód
Widzialność 10 km lub więcej
Rozproszone chmury na wysokości 1300 ft
Rozproszone chmury na wysokości 4000 ft
Przejściowo
od 04 godzina 08 UTC do 04 godzina 12 UTC
Widzialność: 5000 m
Przerywane chmury na wysokości 1000 ft
Mało chmury na wysokości 1300 ft, Cumulonimbus.
burza, deszcz

TAF: VVCT 040500Z 0406/0506 24008KT 9999 SCT013 SCT040 TEMPO 0408/0412 5000 TSRA BKN010 FEW013CB

Obserwacja i prognoza pogody dla ponad 4000 lotnisk (raport METAR i TAF).

Dostępne stacje oznaczono żółtymi i czerwonymi punktami na mapie.

Najedź kursorem aby zobaczyć nazwę stacji.

Kliknij aby zobaczyć obserwacje i prognozy pogody.

Aby zmienić mapę: kliknij na zielony przycisk z czarnym krzyżykiem, aby powiększyć; na zielony przycisk z myślnikiem, aby pomniejszyć; na zielone strzałki, aby przejść do map sąsiednich.


METAR-TAF: